Flight Track Log - Related Links

Times and Time Zones

All times are in EDT time to prevent confusion due to time zone crossing. See the TRS423 flight status page for this flight to view local times or setup timezone preferences in your user account.


Time Position Orientation Groundspeed Altitude Reporting Facility
EDT Latitude Longitude Course Direction KTS MPH feet Rate Location/Type
Fri 02:44:53 PM 28.4000 -81.3000 180° South 181 208 500  Level Orlando TRACON
Fri 02:45:11 PM 28.3833 -81.3000 180° South 175 201 1,500 1,538 Climbing Orlando TRACON
Fri 02:46:11 PM 28.3333 -81.2667 150° Southeast 231 266 2,500 1,350 Climbing Orlando TRACON
Fri 02:47:11 PM 28.3333 -81.2000 90° East 264 304 4,200 2,000 Climbing Orlando TRACON
Fri 02:48:11 PM 28.4000 -81.1833 12° North 283 326 6,500 2,087 Climbing Orlando TRACON
Fri 02:50:15 PM 28.5589 -81.2406 342° North 295 339 10,600 1,696 Climbing Jacksonville Center
Fri 02:51:15 PM 28.6489 -81.2628 348° North 307 353 11,700 1,150 Climbing Jacksonville Center
Fri 02:52:15 PM 28.7472 -81.2894 347° North 332 382 12,900 1,400 Climbing Jacksonville Center
Fri 02:53:15 PM 28.8478 -81.3161 347° North 352 405 14,500 1,550 Climbing Jacksonville Center
Fri 02:54:15 PM 28.9525 -81.3456 346° North 373 429 16,000 1,700 Climbing Jacksonville Center
Fri 02:55:15 PM 29.0614 -81.3769 346° North 380 437 17,900 1,600 Climbing Jacksonville Center
Fri 02:56:15 PM 29.1722 -81.3967 351° North 391 450 19,200 1,600 Climbing Jacksonville Center
Fri 02:57:15 PM 29.2892 -81.4069 356° North 404 465 21,100 1,785 Climbing Jacksonville Center
Fri 02:58:16 PM 29.4061 -81.4194 355° North 415 478 22,800 1,450 Climbing Jacksonville Center
Fri 02:59:15 PM 29.5233 -81.4319 355° North 415 478 24,000 1,160 Climbing Jacksonville Center
Fri 03:00:15 PM 29.6444 -81.4422 356° North 426 490 25,100 1,150 Climbing Jacksonville Center
Fri 03:01:15 PM 29.7678 -81.4547 355° North 433 498 26,300 1,100 Climbing Jacksonville Center
Fri 03:02:15 PM 29.8933 -81.4672 355° North 444 511 27,300 1,091 Climbing Jacksonville Center
Fri 03:03:16 PM 30.0228 -81.4794 355° North 451 519 28,500 1,140 Climbing Jacksonville Center
Fri 03:04:16 PM 30.1481 -81.4922 355° North 451 519 29,600 1,109 Climbing Jacksonville Center
Fri 03:05:15 PM 30.2778 -81.5047 355° North 456 525 30,700 1,160 Climbing Jacksonville Center
Fri 03:06:15 PM 30.4050 -81.5053 360° North 456 525 31,900 1,091 Climbing Jacksonville Center
Fri 03:07:16 PM 30.5322 -81.4939 North 461 531 32,900 550 Climbing Jacksonville Center
Fri 03:08:15 PM 30.6597 -81.4847 North 456 525 33,000 50 Climbing Jacksonville Center
Fri 03:09:15 PM 30.7847 -81.4756 North 456 525 33,000  Level Jacksonville Center
Fri 03:10:15 PM 30.9119 -81.4664 North 456 525 33,000  Level Jacksonville Center
Fri 03:11:15 PM 31.0372 -81.4547 North 456 525 33,000  Level Jacksonville Center
Fri 03:12:15 PM 31.1603 -81.4431 North 444 511 33,000  Level Jacksonville Center
Fri 03:13:15 PM 31.2853 -81.4292 North 451 519 33,000  Level Jacksonville Center
Fri 03:14:15 PM 31.4081 -81.3956 13° North 446 513 33,000  Level Jacksonville Center
Fri 03:15:15 PM 31.5228 -81.3669 12° North 455 524 33,000  Level Jacksonville Center
Fri 03:16:16 PM 31.6581 -81.3306 13° North 448 516 33,000  Level Jacksonville Center
Fri 03:17:16 PM 31.7764 -81.2797 20° North 446 513 33,000  Level Jacksonville Center
Fri 03:18:16 PM 31.8628 -81.1875 42° Northeast 453 521 33,000 -50 Level Jacksonville Center
Fri 03:19:16 PM 31.9719 -81.0778 40° Northeast 463 533 32,900  Descending Jacksonville Center
Fri 03:20:16 PM 32.0603 -80.9878 41° Northeast 463 533 33,000 50 Climbing Jacksonville Center
Fri 03:21:15 PM 32.1672 -80.8825 40° Northeast 458 527 33,000  Level Jacksonville Center
Fri 03:22:16 PM 32.2639 -80.7847 41° Northeast 458 527 33,000 -50 Level Jacksonville Center
Fri 03:23:15 PM 32.3581 -80.6842 42° Northeast 456 525 32,900 -50 Descending Jacksonville Center
Fri 03:24:15 PM 32.4544 -80.5858 41° Northeast 451 519 32,900  Level Jacksonville Center
Fri 03:25:16 PM 32.5528 -80.4847 41° Northeast 457 526 32,900 50 Level Jacksonville Center
Fri 03:26:15 PM 32.6469 -80.3858 41° Northeast 452 520 33,000  Climbing Jacksonville Center
Fri 03:27:15 PM 32.7431 -80.2869 41° Northeast 452 520 32,900 -50 Descending Jacksonville Center
Fri 03:28:16 PM 32.8267 -80.1956 43° Northeast 452 520 32,900  Level Jacksonville Center
Fri 03:29:16 PM 32.9225 -80.0936 42° Northeast 452 520 32,900  Level Jacksonville Center
Fri 03:30:15 PM 33.0206 -79.9942 40° Northeast 452 520 32,900  Level Jacksonville Center
Fri 03:31:16 PM 33.1164 -79.8967 40° Northeast 452 520 32,900  Level Jacksonville Center
Fri 03:32:15 PM 33.2119 -79.7967 41° Northeast 452 520 32,900 50 Level Jacksonville Center
Fri 03:33:15 PM 33.3056 -79.6989 41° Northeast 452 520 33,000  Climbing Jacksonville Center
Fri 03:34:16 PM 33.4011 -79.5986 41° Northeast 452 520 32,900 -50 Descending Jacksonville Center
Fri 03:35:15 PM 33.4964 -79.4953 42° Northeast 452 520 32,900  Level Jacksonville Center
Fri 03:36:15 PM 33.5939 -79.3919 41° Northeast 452 520 32,900  Level Jacksonville Center
Fri 03:37:16 PM 33.6869 -79.2908 42° Northeast 452 520 32,900  Level Jacksonville Center
Fri 03:38:15 PM 33.7858 -79.1794 43° Northeast 447 514 32,900  Level Jacksonville Center
Fri 03:39:16 PM 33.8831 -79.0803 40° Northeast 453 521 32,900  Level Jacksonville Center
Fri 03:40:15 PM 33.9781 -78.9758 42° Northeast 453 521 32,900  Level Jacksonville Center
Fri 03:41:16 PM 34.0750 -78.8789 40° Northeast 453 521 32,900  Level Jacksonville Center
Fri 03:43:17 PM 34.2717 -78.6856 39° Northeast 452 520 32,900  Level Washington Center
Fri 03:44:15 PM 34.3700 -78.5886 39° Northeast 452 520 32,900  Level Washington Center
Fri 03:45:16 PM 34.4686 -78.4889 40° Northeast 452 520 32,900  Level Washington Center
Fri 03:46:16 PM 34.5669 -78.3889 40° Northeast 457 526 32,900  Level Washington Center
Fri 03:47:17 PM 34.6650 -78.2914 39° Northeast 457 526 32,900  Level Washington Center
Fri 03:48:15 PM 34.7589 -78.1958 40° Northeast 452 520 32,900 51 Level Washington Center
Fri 03:49:15 PM 34.8444 -78.1000 43° Northeast 452 520 33,000 50 Climbing Washington Center
Fri 03:50:16 PM 34.9383 -78.0014 41° Northeast 447 514 33,000  Level Washington Center
Fri 03:51:17 PM 35.0342 -77.9053 39° Northeast 447 514 33,000  Level Washington Center
Fri 03:52:15 PM 35.1300 -77.8067 40° Northeast 442 509 33,000  Level Washington Center
Fri 03:53:16 PM 35.2358 -77.7231 33° Northeast 442 509 33,000  Level Washington Center
Fri 03:54:17 PM 35.3414 -77.6419 32° Northeast 442 509 33,000  Level Washington Center
Fri 03:55:15 PM 35.4472 -77.5631 31° Northeast 442 509 33,000  Level Washington Center
Fri 03:56:16 PM 35.5633 -77.4739 32° Northeast 442 509 33,000  Level Washington Center
Fri 03:57:17 PM 35.6689 -77.3919 32° Northeast 442 509 33,000  Level Washington Center
Fri 03:58:17 PM 35.7744 -77.3100 32° Northeast 437 503 33,000  Level Washington Center
Fri 03:59:15 PM 35.8800 -77.2275 32° Northeast 437 503 33,000  Level Washington Center
Fri 04:00:16 PM 35.9853 -77.1475 32° Northeast 437 503 33,000 -49 Level Washington Center
Fri 04:01:17 PM 36.0781 -77.0722 33° Northeast 437 503 32,900 -403 Descending Washington Center
Fri 04:02:15 PM 36.1833 -76.9867 33° Northeast 437 503 32,200 -756 Descending Washington Center
Fri 04:03:16 PM 36.2886 -76.9061 32° Northeast 437 503 31,400 -738 Descending Washington Center
Fri 04:04:17 PM 36.3981 -76.8178 33° Northeast 447 514 30,700 -694 Descending Washington Center
Fri 04:05:17 PM 36.5094 -76.7317 32° Northeast 459 528 30,000 -763 Descending Washington Center
Fri 04:06:15 PM 36.6189 -76.6453 32° Northeast 459 528 29,200 -807 Descending Washington Center
Fri 04:07:16 PM 36.7406 -76.5431 34° Northeast 464 534 28,400 -738 Descending Washington Center
Fri 04:08:17 PM 36.8478 -76.4589 32° Northeast 464 534 27,700 -756 Descending Washington Center
Fri 04:09:15 PM 36.9547 -76.3689 34° Northeast 464 534 26,900 -763 Descending Washington Center
Fri 04:10:15 PM 37.0617 -76.2842 32° Northeast 459 528 26,200 -738 Descending Washington Center
Fri 04:11:17 PM 37.1642 -76.2017 33° Northeast 459 528 25,400 -590 Descending Washington Center
Fri 04:12:17 PM 37.2711 -76.1217 31° Northeast 449 517 25,000 -254 Descending Washington Center
Fri 04:13:15 PM 37.3694 -76.0361 35° Northeast 439 505 24,900 -454 Descending Washington Center
Fri 04:14:16 PM 37.4739 -75.9531 32° Northeast 434 499 24,100 -300 Descending Washington Center
Fri 04:16:15 PM 37.6786 -75.7886 32° Northeast 434 499 24,000 -67 Descending Washington Center
Fri 04:17:16 PM 37.7789 -75.6969 36° Northeast 439 505 23,900 -50 Descending Washington Center
Fri 04:18:16 PM 37.8811 -75.6156 32° Northeast 439 505 23,900 -504 Level Washington Center
Fri 04:19:15 PM 37.9856 -75.5311 32° Northeast 434 499 22,900 -1,008 Descending Washington Center
Fri 04:20:15 PM 38.0856 -75.4519 32° Northeast 434 499 21,900 -992 Descending Washington Center
Fri 04:21:16 PM 38.1875 -75.3856 27° Northeast 420 483 20,900 -984 Descending Washington Center
Fri 04:22:17 PM 38.2833 -75.3192 29° Northeast 408 470 19,900 -958 Descending Washington Center
Fri 04:23:15 PM 38.3750 -75.2633 26° Northeast 402 463 19,000 -958 Descending Washington Center
Fri 04:24:16 PM 38.4747 -75.2044 25° Northeast 402 463 18,000 -1,041 Descending Washington Center
Fri 04:25:16 PM 38.5706 -75.1403 28° Northeast 397 457 16,900 -1,550 Descending Washington Center
Fri 04:26:16 PM 38.6661 -75.0892 23° Northeast 383 441 14,900 -1,339 Descending Washington Center
Fri 04:27:17 PM 38.7642 -75.0778 North 360 414 14,200 -857 Descending Washington Center
Fri 04:28:15 PM 38.8600 -75.0611 North 355 409 13,200 -1,017 Descending Washington Center
Fri 04:29:15 PM 38.9558 -75.0497 North 350 403 12,200 -1,041 Descending Washington Center
Fri 04:30:16 PM 39.0475 -75.0383 North 343 395 11,100 -1,033 Descending Washington Center
Fri 04:31:17 PM 39.1267 -75.0244 North 315 362 10,100 -797 Descending Washington Center
Fri 04:32:54 PM 39.2667 -75.0000 North 277 319 9,000 -420 Descending Philadelphia TRACON
Fri 04:33:54 PM 39.3333 -75.0000 360° North 278 320 9,000 -150 Level Philadelphia TRACON
Fri 04:34:54 PM 39.4167 -74.9833 North 277 319 8,700 -810 Descending Philadelphia TRACON
Fri 04:36:00 PM 39.5000 -74.9667 North 272 313 7,300 -810 Descending Philadelphia TRACON
Fri 04:37:00 PM 39.5667 -74.9833 349° North 250 288 7,000 -150 Descending Philadelphia TRACON
Fri 04:38:00 PM 39.6167 -75.0333 322° Northwest 253 291 7,000  Level Philadelphia TRACON
Fri 04:39:00 PM 39.6833 -75.0667 339° North 261 300 7,000  Level Philadelphia TRACON
Fri 04:40:00 PM 39.7500 -75.0833 349° North 231 266 7,000 -50 Level Philadelphia TRACON
Fri 04:41:00 PM 39.8000 -75.0667 14° North 202 232 6,900 -694 Descending Philadelphia TRACON
Fri 04:42:01 PM 39.8333 -75.0000 57° Northeast 223 257 5,600 -1,512 Descending Philadelphia TRACON
Fri 04:43:07 PM 39.8833 -74.9667 27° Northeast 192 221 3,700 -1,300 Descending Philadelphia TRACON
Fri 04:44:01 PM 39.9167 -75.0167 311° West 203 234 3,000 -743 Descending Philadelphia TRACON
Fri 04:45:00 PM 39.9000 -75.0833 252° West 183 211 2,300 -773 Descending Philadelphia TRACON
Fri 04:46:13 PM 39.8833 -75.1500 252° West 143 165 1,300 -835 Descending Philadelphia TRACON
Fri 04:46:55 PM 39.8833 -75.1833 270° West 142 163 700 -857 Descending Philadelphia TRACON
Fri 04:48:00 PM 39.8667 -75.2333 254° West  Level FlightAware Approximate

Login

Don't have an account? Register now (free) for customized features, flight alerts, and more!